Retalhuleu Airport Retalhuleu US
ICAO: MGRT
IATA: RER
Category: Medium
Scheduled Services: No

Elevation: 656 ft
TransAlt. 0 ft.

Airport Communications:
TWR:118.8

MGRT Zoom In..

If you have problems with the map follow the link
https://www.worldairports.se/pages/airport.php?
ICAO=MGRT

Runways:

(A) RW 04 length 5065 ft width 100 ft
---- / hdg 47

(B) RW 22 length 5065 ft width 100 ft
---- / hdg 227

Location; MGRT
Day. 06 / Time. 00.00 Zulu
* Altimeter: 29.94
* Temperature: 28° c. 82.4°f.
* Wind from: 220° Speed 04 kn.
Dewpoint: 23° c.
Visibility: 10 km or more.
Clouds: Few 1800 ft.

MGRT 060000Z 22004KT 9999 FEW018 28/23 Q1014 A2994 VOL SANTA MARIA Y SANTIAGUITO EN ACTIVIDAD


Wind From 220°
Speed 04 kn.

 
 
jpsmedia worldairports.se 2019   terms of use